Time;durP1;ratioP1;P1;durP2;ratioP2;P2;SDS_P1;SDS_P2;PMS_P1;PMS_P2;Temp;Humidity;BMP_temperature;BMP_pressure;BME280_temperature;BME280_humidity;BME280_pressure;Samples;Min_cycle;Max_cycle;Signal;HPM_P1;HPM_P2
2022/05/22 00:01:57;;;;;;;8.73;3.00;;;11.30;99.90;;;;;;4248290;28;20043;-82
2022/05/22 00:03:57;;;;;;;10.52;3.13;;;11.20;99.90;;;;;;4247991;28;20120;-82
2022/05/22 00:05:58;;;;;;;11.10;2.67;;;11.10;99.90;;;;;;4247802;28;20039;-82
2022/05/22 00:07:59;;;;;;;7.45;2.90;;;11.10;99.90;;;;;;4248001;28;20118;-82
2022/05/22 00:10:01;;;;;;;6.57;2.65;;;11.10;99.90;;;;;;4247632;28;20108;-82
2022/05/22 00:12:03;;;;;;;8.10;2.80;;;11.10;99.90;;;;;;4247549;28;20500;-83
2022/05/22 00:14:04;;;;;;;8.48;3.53;;;11.10;99.90;;;;;;4232046;28;20039;-82
2022/05/22 00:18:24;;;;;;;9.23;3.40;;;11.10;99.90;;;;;;4214085;28;20524;-83
2022/05/22 00:20:25;;;;;;;6.93;2.70;;;11.10;99.90;;;;;;4234152;28;20059;-82
2022/05/22 00:22:25;;;;;;;10.98;3.00;;;11.10;99.90;;;;;;4233096;28;20051;-83
2022/05/22 00:24:29;;;;;;;11.18;3.22;;;11.10;99.90;;;;;;4233823;28;20482;-82
2022/05/22 00:26:30;;;;;;;10.48;2.83;;;11.00;99.90;;;;;;4234117;28;20054;-82
2022/05/22 00:28:31;;;;;;;6.55;3.42;;;11.00;99.90;;;;;;4234077;28;20040;-82
2022/05/22 00:30:32;;;;;;;9.88;3.17;;;11.00;99.90;;;;;;4233302;28;20130;-82
2022/05/22 00:32:32;;;;;;;7.20;3.47;;;10.90;99.90;;;;;;4233685;28;20431;-82
2022/05/22 00:34:34;;;;;;;8.75;2.88;;;10.90;99.90;;;;;;4233458;28;20043;-83
2022/05/22 00:36:34;;;;;;;12.00;3.38;;;10.90;99.90;;;;;;4233777;28;20047;-83
2022/05/22 00:38:35;;;;;;;10.85;3.97;;;10.80;99.90;;;;;;4215466;28;20035;-83
2022/05/22 00:40:36;;;;;;;12.93;2.63;;;10.90;99.90;;;;;;4233763;28;20130;-83
2022/05/22 00:42:37;;;;;;;12.48;3.20;;;10.90;99.90;;;;;;4233637;28;20054;-82
2022/05/22 00:44:38;;;;;;;7.50;3.63;;;10.80;99.90;;;;;;4233103;28;20044;-83
2022/05/22 00:46:38;;;;;;;10.45;3.88;;;10.90;99.90;;;;;;4233507;28;20049;-82
2022/05/22 00:48:42;;;;;;;10.73;3.13;;;11.20;99.90;;;;;;4233625;28;20055;-83
2022/05/22 00:50:43;;;;;;;8.48;3.30;;;10.80;99.90;;;;;;4233271;28;20040;-82
2022/05/22 00:52:49;;;;;;;10.27;3.03;;;10.80;99.90;;;;;;4233381;28;20543;-82
2022/05/22 00:54:59;;;;;;;9.27;3.17;;;10.80;99.90;;;;;;4233535;28;20039;-82
2022/05/22 00:57:29;;;;;;;17.95;4.05;;;10.80;99.90;;;;;;4233306;28;20118;-83
2022/05/22 00:59:36;;;;;;;7.50;3.25;;;10.70;99.90;;;;;;4232645;28;20097;-83
2022/05/22 01:01:37;;;;;;;8.85;3.45;;;10.70;99.90;;;;;;4233552;28;20047;-83
2022/05/22 01:03:38;;;;;;;12.20;4.68;;;10.90;99.90;;;;;;4233224;28;20172;-82
2022/05/22 01:05:39;;;;;;;10.85;3.50;;;10.60;99.90;;;;;;4233404;28;20050;-82
2022/05/22 01:07:39;;;;;;;10.43;3.22;;;10.70;99.90;;;;;;4215346;28;20051;-82
2022/05/22 01:09:40;;;;;;;10.70;3.55;;;10.70;99.90;;;;;;4233023;28;20086;-82
2022/05/22 01:11:42;;;;;;;15.30;3.92;;;10.70;99.90;;;;;;4215310;28;20040;-82
2022/05/22 01:14:01;;;;;;;10.43;3.83;;;10.70;99.90;;;;;;4232998;28;20043;-82
2022/05/22 01:16:04;;;;;;;9.60;3.40;;;10.70;99.90;;;;;;4233326;28;20487;-83
2022/05/22 01:18:06;;;;;;;13.48;3.65;;;10.60;99.90;;;;;;4232474;28;20058;-83
2022/05/22 01:20:07;;;;;;;9.00;4.82;;;10.60;99.90;;;;;;4233003;28;20118;-83
2022/05/22 01:22:12;;;;;;;13.50;3.70;;;10.60;99.90;;;;;;4233093;28;20451;-82
2022/05/22 01:24:13;;;;;;;11.18;3.58;;;10.90;99.90;;;;;;4215054;28;20044;-82
2022/05/22 01:26:14;;;;;;;16.92;5.22;;;10.60;99.90;;;;;;4232858;28;20043;-82
2022/05/22 01:28:17;;;;;;;9.90;3.30;;;10.50;99.90;;;;;;4232695;28;20292;-83
2022/05/22 01:30:22;;;;;;;13.60;3.60;;;10.50;99.90;;;;;;4233061;28;20035;-82
2022/05/22 01:32:23;;;;;;;11.48;3.83;;;10.50;99.90;;;;;;4232424;28;20062;-83
2022/05/22 01:34:23;;;;;;;16.63;5.28;;;10.50;99.90;;;;;;4233018;28;20036;-82
2022/05/22 01:36:24;;;;;;;14.88;4.25;;;10.50;99.90;;;;;;4232755;28;20403;-82
2022/05/22 01:38:25;;;;;;;16.75;4.82;;;10.40;99.90;;;;;;4232953;28;20134;-82
2022/05/22 01:40:25;;;;;;;15.95;4.72;;;10.50;99.90;;;;;;4214401;28;20048;-82
2022/05/22 01:42:27;;;;;;;13.77;4.93;;;10.60;99.90;;;;;;4232437;28;20043;-82
2022/05/22 01:44:28;;;;;;;12.23;4.30;;;10.40;99.90;;;;;;4232710;28;20044;-82
2022/05/22 01:46:29;;;;;;;12.52;4.22;;;10.40;99.90;;;;;;4232879;28;20040;-82
2022/05/22 01:48:30;;;;;;;14.80;4.68;;;10.40;99.90;;;;;;4232661;28;20043;-82
2022/05/22 01:50:30;;;;;;;12.55;4.40;;;10.30;99.90;;;;;;4232730;28;20050;-83
2022/05/22 01:52:31;;;;;;;10.13;3.78;;;10.40;99.90;;;;;;4232241;28;20043;-82
2022/05/22 01:54:32;;;;;;;11.18;3.85;;;10.30;99.90;;;;;;4232673;28;20035;-83
2022/05/22 01:56:34;;;;;;;7.47;3.67;;;10.50;99.90;;;;;;4232221;28;20047;-83
2022/05/22 01:58:34;;;;;;;11.02;4.05;;;10.70;99.90;;;;;;4232713;28;20162;-83
2022/05/22 02:00:36;;;;;;;10.75;3.63;;;10.30;99.90;;;;;;4232053;28;20048;-83
2022/05/22 02:02:37;;;;;;;10.50;4.22;;;10.30;99.90;;;;;;4231852;28;20036;-83
2022/05/22 02:04:37;;;;;;;14.38;4.55;;;10.30;99.90;;;;;;4232311;28;20057;-83
2022/05/22 02:08:19;;;;;;;13.38;4.20;;;10.30;99.90;;;;;;4233349;28;20047;-83
2022/05/22 02:09:00;;;;;;;16.23;4.00;;;10.30;99.90;;;;;;4214519;28;20135;-82
2022/05/22 02:11:06;;;;;;;11.60;4.30;;;10.20;99.90;;;;;;4232629;28;20051;-83
2022/05/22 02:13:07;;;;;;;14.73;3.60;;;10.20;99.90;;;;;;4231933;28;20040;-82
2022/05/22 02:15:09;;;;;;;13.30;4.00;;;10.50;99.90;;;;;;4231821;28;20472;-82
2022/05/22 02:17:12;;;;;;;10.85;4.05;;;10.20;99.90;;;;;;4232494;28;20527;-83
2022/05/22 02:19:12;;;;;;;9.40;4.28;;;10.10;99.90;;;;;;4232250;28;20161;-83
2022/05/22 02:21:13;;;;;;;12.80;4.38;;;10.20;99.90;;;;;;4232014;28;20051;-82
2022/05/22 02:23:17;;;;;;;13.82;4.32;;;10.20;99.90;;;;;;4233100;28;20058;-82
2022/05/22 02:25:23;;;;;;;6.75;3.08;;;10.80;99.90;;;;;;4213825;28;20362;-82
2022/05/22 02:27:23;;;;;;;11.93;3.72;;;10.10;99.90;;;;;;4232336;28;20488;-83
2022/05/22 02:29:24;;;;;;;11.93;3.75;;;10.10;99.90;;;;;;4232092;28;20051;-83
2022/05/22 02:31:24;;;;;;;9.23;4.57;;;10.10;99.90;;;;;;4232057;28;20100;-83
2022/05/22 02:33:25;;;;;;;10.63;3.97;;;10.30;99.90;;;;;;4231611;28;20044;-83
2022/05/22 02:35:26;;;;;;;13.60;4.07;;;10.10;99.90;;;;;;4232102;28;20392;-83
2022/05/22 02:37:27;;;;;;;11.98;4.18;;;10.00;99.90;;;;;;4231786;28;20040;-83
2022/05/22 02:39:28;;;;;;;9.40;4.10;;;9.90;99.90;;;;;;4231799;28;20130;-83
2022/05/22 02:41:29;;;;;;;10.90;4.03;;;10.30;99.90;;;;;;4231520;28;20050;-82
2022/05/22 02:43:29;;;;;;;10.80;3.75;;;10.00;99.90;;;;;;4231702;28;20054;-83
2022/05/22 02:45:35;;;;;;;10.88;4.45;;;10.00;99.90;;;;;;4230944;28;20043;-82
2022/05/22 02:47:36;;;;;;;10.90;3.55;;;10.00;99.90;;;;;;4231584;28;20039;-83
2022/05/22 02:49:36;;;;;;;8.88;3.88;;;10.00;99.90;;;;;;4231699;28;20484;-82
2022/05/22 02:51:37;;;;;;;8.65;3.42;;;10.50;99.90;;;;;;4231841;28;20047;-82
2022/05/22 02:53:38;;;;;;;10.90;4.15;;;9.90;99.90;;;;;;4231693;28;20044;-82
2022/05/22 02:55:41;;;;;;;8.25;3.90;;;9.90;99.90;;;;;;4231661;28;20035;-82
2022/05/22 02:57:42;;;;;;;10.50;3.70;;;10.20;99.90;;;;;;4244723;27;20051;-83
2022/05/22 02:59:44;;;;;;;10.02;4.05;;;9.90;99.90;;;;;;4248546;27;20411;-83
2022/05/22 03:01:44;;;;;;;9.35;3.30;;;9.90;99.90;;;;;;4248767;27;20046;-83
2022/05/22 03:03:45;;;;;;;19.08;4.25;;;9.90;99.90;;;;;;4248314;27;20379;-82
2022/05/22 03:08:06;;;;;;;10.75;3.75;;;9.90;99.90;;;;;;4248348;27;20074;-82
2022/05/22 03:10:10;;;;;;;9.73;4.05;;;9.80;99.90;;;;;;4248516;27;20043;-82
2022/05/22 03:12:14;;;;;;;8.95;3.58;;;9.80;99.90;;;;;;4248214;27;20043;-83
2022/05/22 03:14:14;;;;;;;8.57;3.75;;;9.80;99.90;;;;;;4229496;28;20066;-83
2022/05/22 03:16:16;;;;;;;8.52;3.97;;;9.80;99.90;;;;;;4248500;27;20047;-83
2022/05/22 03:18:17;;;;;;;11.73;3.80;;;9.80;99.90;;;;;;4248740;27;20118;-82
2022/05/22 03:20:17;;;;;;;10.98;4.25;;;9.80;99.90;;;;;;4229819;28;20047;-81
2022/05/22 03:22:18;;;;;;;13.55;4.05;;;9.80;99.90;;;;;;4247697;28;20051;-82
2022/05/22 03:24:20;;;;;;;9.38;4.60;;;9.80;99.90;;;;;;4248054;28;20364;-83
2022/05/22 03:26:21;;;;;;;7.55;4.25;;;10.00;99.90;;;;;;4248103;28;20035;-83
2022/05/22 03:28:23;;;;;;;10.52;4.30;;;9.80;99.90;;;;;;4248141;28;20477;-83
2022/05/22 03:30:25;;;;;;;8.85;4.30;;;9.80;99.90;;;;;;4229673;28;20044;-82
2022/05/22 03:32:26;;;;;;;9.48;4.18;;;9.80;99.90;;;;;;4248467;28;20491;-82
2022/05/22 03:34:26;;;;;;;16.35;4.85;;;9.80;99.90;;;;;;4248057;28;20060;-83
2022/05/22 03:36:27;;;;;;;12.48;4.72;;;10.20;99.90;;;;;;4248100;28;20043;-83
2022/05/22 03:38:28;;;;;;;9.57;3.83;;;10.00;99.90;;;;;;4247983;28;20082;-82
2022/05/22 03:40:28;;;;;;;11.48;5.07;;;9.80;99.90;;;;;;4230107;28;20404;-82
2022/05/22 03:42:29;;;;;;;9.07;4.60;;;9.80;99.90;;;;;;4229901;28;20059;-82
2022/05/22 03:44:30;;;;;;;9.82;4.28;;;9.90;99.90;;;;;;4247569;28;20054;-82
2022/05/22 03:46:31;;;;;;;11.02;4.07;;;9.80;99.90;;;;;;4247925;28;20039;-82
2022/05/22 03:48:32;;;;;;;12.57;4.97;;;9.80;99.90;;;;;;4247776;28;20043;-82
2022/05/22 03:50:32;;;;;;;8.65;4.55;;;9.70;99.90;;;;;;4248023;28;20402;-82
2022/05/22 03:52:38;;;;;;;17.77;5.20;;;9.70;99.90;;;;;;4230046;28;20047;-82
2022/05/22 03:54:39;;;;;;;10.00;4.10;;;10.00;99.90;;;;;;4251383;27;20082;-82
2022/05/22 03:56:41;;;;;;;11.55;4.53;;;9.70;99.90;;;;;;4251374;27;20528;-83
2022/05/22 03:58:43;;;;;;;11.00;4.85;;;10.10;99.90;;;;;;4251092;27;20250;-83
2022/05/22 04:00:44;;;;;;;11.50;4.35;;;9.70;99.90;;;;;;4250975;27;20047;-82
2022/05/22 04:02:45;;;;;;;7.57;3.38;;;9.70;99.90;;;;;;4251704;27;20043;-82
2022/05/22 04:04:46;;;;;;;6.65;3.58;;;9.70;99.90;;;;;;4250841;27;20045;-82
2022/05/22 04:06:48;;;;;;;8.77;2.72;;;9.90;99.90;;;;;;4251008;27;20467;-82
2022/05/22 04:08:48;;;;;;;3.30;2.13;;;9.70;99.90;;;;;;4250905;27;20390;-82
2022/05/22 04:10:49;;;;;;;10.15;3.20;;;10.10;99.90;;;;;;4250886;27;20175;-82
2022/05/22 04:12:50;;;;;;;5.75;2.60;;;9.60;99.90;;;;;;4246070;27;20536;-83
2022/05/22 04:14:54;;;;;;;8.65;3.05;;;9.60;99.90;;;;;;4234355;28;20036;-82
2022/05/22 04:16:55;;;;;;;6.78;2.90;;;9.70;99.90;;;;;;4233730;28;20039;-82
2022/05/22 04:18:55;;;;;;;8.38;3.65;;;10.20;99.90;;;;;;4234321;28;20158;-82
2022/05/22 04:20:56;;;;;;;13.48;4.32;;;9.60;99.90;;;;;;4233613;28;20051;-83
2022/05/22 04:25:21;;;;;;;10.73;4.18;;;9.70;99.90;;;;;;4233806;28;20043;-83
2022/05/22 04:27:22;;;;;;;13.63;4.95;;;10.80;99.90;;;;;;4234220;28;20528;-83
2022/05/22 04:29:22;;;;;;;12.18;4.70;;;10.30;99.90;;;;;;4233779;28;20046;-82
2022/05/22 04:31:23;;;;;;;15.35;5.30;;;10.40;99.90;;;;;;4233383;28;20080;-82
2022/05/22 04:33:25;;;;;;;13.10;4.43;;;10.20;99.90;;;;;;4233578;28;20047;-83
2022/05/22 04:35:26;;;;;;;15.50;4.65;;;10.00;99.90;;;;;;4215605;28;20043;-82
2022/05/22 04:37:27;;;;;;;12.07;4.60;;;10.00;99.90;;;;;;4233812;28;20035;-82
2022/05/22 04:39:28;;;;;;;12.48;5.22;;;10.30;99.90;;;;;;4233543;28;20077;-83
2022/05/22 04:41:28;;;;;;;13.35;4.47;;;10.10;99.90;;;;;;4234096;28;20040;-84
2022/05/22 04:43:31;;;;;;;11.75;3.92;;;10.30;99.90;;;;;;4233685;28;20066;-83
2022/05/22 04:45:32;;;;;;;8.27;4.90;;;10.60;99.90;;;;;;4233406;28;20047;-82
2022/05/22 04:47:38;;;;;;;14.40;5.35;;;10.30;99.90;;;;;;4215484;28;20044;-83
2022/05/22 04:49:39;;;;;;;10.05;3.80;;;10.30;99.90;;;;;;4215438;28;20150;-82
2022/05/22 04:51:39;;;;;;;8.88;4.32;;;10.30;99.90;;;;;;4215649;28;20115;-83
2022/05/22 04:53:40;;;;;;;21.63;4.40;;;10.40;99.90;;;;;;4233059;28;20050;-83
2022/05/22 04:55:41;;;;;;;10.93;3.75;;;10.80;99.90;;;;;;4233465;28;20467;-83
2022/05/22 04:57:43;;;;;;;10.05;4.38;;;10.80;99.90;;;;;;4245999;27;20410;-82
2022/05/22 04:59:43;;;;;;;11.75;4.85;;;10.90;99.90;;;;;;4249883;27;20095;-82
2022/05/22 05:01:44;;;;;;;13.48;5.18;;;11.10;99.90;;;;;;4232273;28;20085;-82
2022/05/22 05:03:45;;;;;;;12.70;4.70;;;10.60;99.90;;;;;;4249827;27;20038;-83
2022/05/22 05:05:57;;;;;;;11.93;4.38;;;10.70;99.90;;;;;;4249903;27;20475;-83
2022/05/22 05:07:58;;;;;;;16.15;4.43;;;10.70;99.90;;;;;;4249956;27;20043;-82
2022/05/22 05:09:59;;;;;;;12.82;4.50;;;10.80;99.90;;;;;;4249951;27;20087;-82
2022/05/22 05:12:01;;;;;;;14.20;4.35;;;11.70;99.90;;;;;;4250233;27;20505;-83
2022/05/22 05:14:02;;;;;;;12.45;3.97;;;11.00;99.90;;;;;;4250367;27;20050;-82
2022/05/22 05:16:06;;;;;;;13.88;5.03;;;11.10;99.90;;;;;;4215189;28;20040;-82
2022/05/22 05:18:07;;;;;;;13.65;4.30;;;11.10;99.90;;;;;;4250014;27;20126;-83
2022/05/22 05:20:11;;;;;;;10.45;4.00;;;11.20;99.90;;;;;;4249494;27;20090;-82
2022/05/22 05:22:13;;;;;;;18.00;4.00;;;11.30;99.90;;;;;;4249984;27;20043;-82
2022/05/22 05:24:13;;;;;;;12.80;4.30;;;11.40;99.90;;;;;;4250024;27;20043;-82
2022/05/22 05:26:14;;;;;;;13.73;4.60;;;11.40;99.90;;;;;;4249939;27;20058;-83
2022/05/22 05:28:15;;;;;;;13.85;4.13;;;11.10;99.90;;;;;;4249342;27;20050;-82
2022/05/22 05:30:15;;;;;;;23.95;4.15;;;11.70;99.90;;;;;;4249562;27;20669;-83
2022/05/22 05:32:20;;;;;;;11.00;4.85;;;11.70;99.90;;;;;;4249069;27;20506;-82
2022/05/22 05:34:21;;;;;;;10.23;3.63;;;11.70;99.90;;;;;;4250120;27;20146;-83
2022/05/22 05:36:21;;;;;;;15.10;4.20;;;11.90;99.90;;;;;;4249904;27;20051;-82
2022/05/22 05:38:22;;;;;;;16.50;4.13;;;12.00;99.90;;;;;;4249667;27;20060;-82
2022/05/22 05:40:24;;;;;;;17.08;3.95;;;12.00;99.90;;;;;;4232014;28;20086;-82
2022/05/22 05:42:30;;;;;;;14.68;5.00;;;12.10;99.90;;;;;;4231195;28;20100;-82
2022/05/22 05:44:33;;;;;;;17.42;4.93;;;12.10;99.90;;;;;;4249862;27;20047;-83
2022/05/22 05:46:38;;;;;;;17.83;4.40;;;12.00;99.90;;;;;;4249311;27;20039;-83
2022/05/22 05:48:39;;;;;;;14.73;5.15;;;12.30;99.90;;;;;;4250508;27;20039;-82
2022/05/22 05:50:41;;;;;;;10.20;3.42;;;12.40;99.90;;;;;;4244716;27;20039;-81
2022/05/22 05:52:42;;;;;;;16.55;4.03;;;12.50;99.90;;;;;;4249030;27;20070;-81
2022/05/22 05:54:42;;;;;;;13.70;5.95;;;12.60;99.90;;;;;;4249289;27;20035;-82
2022/05/22 05:56:43;;;;;;;13.15;3.70;;;12.60;99.90;;;;;;4249224;27;20051;-82
2022/05/22 05:58:44;;;;;;;10.52;4.30;;;12.70;99.90;;;;;;4230956;28;20047;-83
2022/05/22 06:00:44;;;;;;;18.35;3.72;;;12.70;99.90;;;;;;4248778;27;20084;-82
2022/05/22 06:02:45;;;;;;;9.30;3.83;;;12.80;99.90;;;;;;4249302;27;20103;-83
2022/05/22 06:04:46;;;;;;;13.13;4.57;;;12.80;99.90;;;;;;4249273;27;20047;-83
2022/05/22 06:06:47;;;;;;;15.02;4.13;;;12.90;99.90;;;;;;4249746;27;20123;-83
2022/05/22 06:08:48;;;;;;;17.33;3.90;;;13.00;99.90;;;;;;4249429;27;20071;-83
2022/05/22 06:10:52;;;;;;;13.80;3.85;;;13.00;99.90;;;;;;4250817;27;20043;-83
2022/05/22 06:12:53;;;;;;;14.57;3.95;;;13.10;99.90;;;;;;4250490;27;20088;-83
2022/05/22 06:14:54;;;;;;;14.10;3.42;;;13.10;99.90;;;;;;4250644;27;20130;-82
2022/05/22 06:16:54;;;;;;;11.77;4.10;;;13.10;99.90;;;;;;4251101;27;20395;-83
2022/05/22 06:18:55;;;;;;;8.93;3.35;;;13.30;99.90;;;;;;4251732;27;20043;-82
2022/05/22 06:20:57;;;;;;;12.02;4.00;;;13.40;99.90;;;;;;4251192;27;20066;-83
2022/05/22 06:22:57;;;;;;;16.67;4.20;;;13.50;99.90;;;;;;4251906;27;20050;-83
2022/05/22 06:24:58;;;;;;;16.73;4.38;;;13.60;99.90;;;;;;4251953;27;20483;-84
2022/05/22 06:27:02;;;;;;;14.35;3.28;;;13.70;99.90;;;;;;4233025;28;20516;-83
2022/05/22 06:29:03;;;;;;;14.00;3.42;;;13.70;99.90;;;;;;4248469;27;20069;-83
2022/05/22 06:31:06;;;;;;;11.20;3.60;;;13.70;99.90;;;;;;4248830;27;20054;-83
2022/05/22 06:33:11;;;;;;;12.95;3.67;;;13.80;99.90;;;;;;4248350;27;20043;-83
2022/05/22 06:35:13;;;;;;;10.50;3.22;;;13.90;99.90;;;;;;4248215;27;20495;-83
2022/05/22 06:37:21;;;;;;;13.00;3.45;;;13.90;99.90;;;;;;4248723;27;20100;-83
2022/05/22 06:41:40;;;;;;;14.90;2.90;;;14.10;99.90;;;;;;4248755;27;20097;-83
2022/05/22 06:43:41;;;;;;;14.65;3.20;;;14.20;99.90;;;;;;4248003;27;20043;-83
2022/05/22 06:45:42;;;;;;;12.85;3.38;;;14.30;99.90;;;;;;4247178;27;20090;-83
2022/05/22 06:47:44;;;;;;;12.82;3.10;;;14.30;99.90;;;;;;4229794;28;20062;-83
2022/05/22 06:49:45;;;;;;;15.43;2.70;;;14.40;99.90;;;;;;4248300;27;20070;-83
2022/05/22 06:51:47;;;;;;;13.05;2.97;;;14.40;99.90;;;;;;4248746;27;20039;-83
2022/05/22 06:53:47;;;;;;;12.13;2.85;;;14.50;99.90;;;;;;4248650;27;20035;-83
2022/05/22 06:55:48;;;;;;;8.02;1.98;;;14.60;99.90;;;;;;4248290;27;20039;-83
2022/05/22 06:57:49;;;;;;;8.35;2.10;;;14.60;99.90;;;;;;4248170;27;20122;-83
2022/05/22 06:59:54;;;;;;;11.80;2.92;;;14.70;99.90;;;;;;4230204;28;20097;-83
2022/05/22 07:01:55;;;;;;;9.07;2.45;;;14.90;99.90;;;;;;4247676;27;20092;-83
2022/05/22 07:03:55;;;;;;;14.43;2.97;;;14.90;99.90;;;;;;4248232;27;20424;-84
2022/05/22 07:05:56;;;;;;;11.02;2.78;;;15.00;99.90;;;;;;4229811;28;20044;-84
2022/05/22 07:07:58;;;;;;;10.60;2.60;;;15.10;99.90;;;;;;4229890;28;20100;-83
2022/05/22 07:09:58;;;;;;;8.05;2.38;;;15.10;99.90;;;;;;4248164;27;20088;-83
2022/05/22 07:11:59;;;;;;;10.88;2.63;;;15.20;99.90;;;;;;4248217;27;20042;-83
2022/05/22 07:14:00;;;;;;;10.88;2.67;;;;;;;;;;4230038;28;20076;-83
2022/05/22 07:16:04;;;;;;;7.53;2.58;;;15.30;99.90;;;;;;4230039;28;20107;-82
2022/05/22 07:18:05;;;;;;;8.32;1.70;;;15.40;99.90;;;;;;4247818;27;20111;-83
2022/05/22 07:20:06;;;;;;;6.38;2.85;;;15.40;99.90;;;;;;4229609;28;20047;-83
2022/05/22 07:22:07;;;;;;;9.82;2.25;;;15.50;99.90;;;;;;4230246;28;20051;-83
2022/05/22 07:24:08;;;;;;;9.00;2.38;;;15.60;99.90;;;;;;4231102;28;20439;-83
2022/05/22 07:26:08;;;;;;;9.50;1.70;;;15.70;99.90;;;;;;4229806;28;20400;-83
2022/05/22 07:28:09;;;;;;;7.30;1.90;;;15.80;99.80;;;;;;4236272;28;20443;-83
2022/05/22 07:30:10;;;;;;;9.75;1.90;;;15.90;99.50;;;;;;4236599;27;20043;-83
2022/05/22 07:32:11;;;;;;;10.85;2.40;;;16.00;99.50;;;;;;4235158;28;20044;-83
2022/05/22 07:34:12;;;;;;;11.30;1.77;;;16.00;99.10;;;;;;4235157;28;20529;-82
2022/05/22 07:36:13;;;;;;;10.80;1.85;;;16.20;99.00;;;;;;4236570;28;20040;-83
2022/05/22 07:38:14;;;;;;;8.48;1.73;;;16.20;98.80;;;;;;4236886;27;20503;-83
2022/05/22 07:40:15;;;;;;;7.30;1.33;;;16.20;98.50;;;;;;4236857;27;20043;-84
2022/05/22 07:42:15;;;;;;;9.93;1.92;;;16.30;98.60;;;;;;4236835;28;20047;-83
2022/05/22 07:44:16;;;;;;;7.15;1.88;;;16.40;98.00;;;;;;4236938;27;20073;-83
2022/05/22 07:46:17;;;;;;;5.38;2.13;;;16.50;97.90;;;;;;4227753;27;20054;-83
2022/05/22 07:48:18;;;;;;;12.82;1.77;;;16.60;97.80;;;;;;4230958;28;20048;-82
2022/05/22 07:50:20;;;;;;;9.45;2.70;;;16.80;97.80;;;;;;4237796;27;20404;-82
2022/05/22 07:52:21;;;;;;;8.70;2.28;;;16.90;97.20;;;;;;4237600;27;20043;-83
2022/05/22 07:54:22;;;;;;;10.18;1.80;;;17.00;96.90;;;;;;4235600;28;20047;-82
2022/05/22 07:56:23;;;;;;;8.00;2.20;;;17.00;96.90;;;;;;4236961;28;20043;-83
2022/05/22 07:58:25;;;;;;;8.65;2.80;;;;;;;;;;4236902;27;20051;-83
2022/05/22 08:00:26;;;;;;;11.70;3.47;;;17.10;96.70;;;;;;4236662;28;20400;-83
2022/05/22 08:02:27;;;;;;;10.20;1.77;;;17.30;96.00;;;;;;4236779;27;20039;-83
2022/05/22 08:04:28;;;;;;;7.15;2.22;;;17.40;96.20;;;;;;4235929;27;20043;-83
2022/05/22 08:06:28;;;;;;;7.93;2.15;;;17.50;95.90;;;;;;4236450;27;20039;-83
2022/05/22 08:08:31;;;;;;;9.35;2.05;;;17.60;95.70;;;;;;4236408;28;20043;-83
2022/05/22 08:10:32;;;;;;;6.88;1.73;;;17.90;95.60;;;;;;4235990;27;20451;-83
2022/05/22 08:12:37;;;;;;;8.52;1.65;;;18.20;95.30;;;;;;4236183;27;20040;-83
2022/05/22 08:14:38;;;;;;;10.75;1.67;;;18.40;95.00;;;;;;4236234;28;20040;-84
2022/05/22 08:16:38;;;;;;;7.40;1.50;;;18.50;94.90;;;;;;4237096;27;20110;-82
2022/05/22 08:18:39;;;;;;;5.22;1.35;;;18.70;94.40;;;;;;4236631;28;20039;-84
2022/05/22 08:20:43;;;;;;;6.28;1.77;;;18.70;94.20;;;;;;4243522;27;20086;-84
2022/05/22 08:22:44;;;;;;;9.68;1.80;;;18.70;94.10;;;;;;4252888;27;20058;-84
2022/05/22 08:24:45;;;;;;;8.55;2.13;;;18.50;94.10;;;;;;4252525;27;20154;-84
2022/05/22 08:26:46;;;;;;;8.90;1.70;;;18.50;94.20;;;;;;4235025;28;20525;-83
2022/05/22 08:28:46;;;;;;;11.15;1.33;;;18.20;94.20;;;;;;4235112;28;20826;-83
2022/05/22 08:30:47;;;;;;;6.05;1.40;;;18.30;94.00;;;;;;4235137;28;20089;-84
2022/05/22 08:32:49;;;;;;;7.47;1.80;;;18.40;93.60;;;;;;4254783;27;20045;-84
2022/05/22 08:34:53;;;;;;;6.47;1.45;;;18.60;92.90;;;;;;4254802;27;20042;-83
2022/05/22 08:36:54;;;;;;;9.32;2.35;;;18.70;92.70;;;;;;4254382;27;20078;-83
2022/05/22 08:38:55;;;;;;;13.93;2.10;;;19.00;92.50;;;;;;4253012;27;20050;-84
2022/05/22 08:41:11;;;;;;;7.50;1.45;;;19.20;91.60;;;;;;4233579;28;20407;-83
2022/05/22 08:43:16;;;;;;;6.72;1.73;;;19.50;91.40;;;;;;4248342;27;20039;-83
2022/05/22 08:45:19;;;;;;;7.55;1.65;;;19.80;90.60;;;;;;4251030;27;20379;-84
2022/05/22 08:47:56;;;;;;;15.68;2.28;;;20.00;90.20;;;;;;4251067;27;20053;-85
2022/05/22 08:50:08;;;;;;;3.90;1.23;;;20.20;83.20;;;;;;4233193;28;20043;-85
2022/05/22 08:52:20;;;;;;;4.95;1.52;;;20.20;87.50;;;;;;4232948;28;20373;-85
2022/05/22 08:54:33;;;;;;;4.30;1.50;;;20.50;87.20;;;;;;4251138;27;20039;-83
2022/05/22 08:58:57;;;;;;;7.57;1.27;;;;;;;;;;4231640;28;20050;-83
2022/05/22 09:01:02;;;;;;;6.72;2.67;;;;;;;;;;4250536;27;20047;-83
2022/05/22 09:03:06;;;;;;;7.20;2.03;;;;;;;;;;4250241;27;20051;-83
2022/05/22 09:05:13;;;;;;;3.85;1.05;;;21.00;88.10;;;;;;4231195;28;20126;-83
2022/05/22 09:07:47;;;;;;;5.68;1.02;;;21.70;83.00;;;;;;4249533;27;20079;-84
2022/05/22 09:10:05;;;;;;;5.57;1.33;;;22.00;81.90;;;;;;4248680;27;20072;-83
2022/05/22 09:12:24;;;;;;;4.07;1.10;;;22.00;82.70;;;;;;4232790;27;20039;-83
2022/05/22 09:14:35;;;;;;;5.13;1.20;;;22.00;82.20;;;;;;4232051;28;20050;-83
2022/05/22 09:16:53;;;;;;;8.60;2.03;;;;;;;;;;4249898;27;20164;-83
2022/05/22 09:19:02;;;;;;;5.55;1.52;;;22.30;82.70;;;;;;4250083;27;20039;-83
2022/05/22 09:21:06;;;;;;;;;;;22.70;74.30;;;;;;4232640;28;20454;-84
2022/05/22 09:23:25;;;;;;;6.20;1.55;;;22.50;75.50;;;;;;4250364;27;19919;-83
2022/05/22 09:25:47;;;;;;;12.50;2.60;;;22.60;79.90;;;;;;4249257;27;20186;-84
2022/05/22 09:27:50;;;;;;;3.97;1.10;;;22.70;77.70;;;;;;4231555;28;20062;-83
2022/05/22 09:30:18;;;;;;;5.78;1.23;;;23.00;76.60;;;;;;4249325;27;20047;-84
2022/05/22 09:32:32;;;;;;;6.38;1.60;;;23.10;75.70;;;;;;4248798;27;20380;-84
2022/05/22 09:34:48;;;;;;;7.05;1.35;;;23.10;72.40;;;;;;4250170;27;20062;-84
2022/05/22 09:37:08;;;;;;;4.78;1.13;;;23.10;75.00;;;;;;4249000;27;20079;-83
2022/05/22 09:39:24;;;;;;;5.68;1.05;;;23.10;69.90;;;;;;4246930;27;20399;-83
2022/05/22 09:41:56;;;;;;;6.30;1.20;;;22.90;69.50;;;;;;4248255;27;20510;-83
2022/05/22 09:44:15;;;;;;;5.97;1.00;;;23.30;71.10;;;;;;4245678;27;20047;-83
2022/05/22 09:46:37;;;;;;;5.97;1.23;;;23.60;71.90;;;;;;4230047;28;20215;-83
2022/05/22 09:49:03;;;;;;;5.65;1.63;;;23.90;67.60;;;;;;4231239;28;20055;-83
2022/05/22 09:51:31;;;;;;;7.00;0.90;;;24.20;66.80;;;;;;4247791;27;20054;-83
2022/05/22 09:54:02;;;;;;;4.00;1.00;;;23.70;65.20;;;;;;4231073;28;20036;-83
2022/05/22 09:56:23;;;;;;;4.38;0.90;;;23.70;65.80;;;;;;4230089;28;20043;-83
2022/05/22 09:58:47;;;;;;;4.32;0.80;;;24.00;62.60;;;;;;4230500;28;20106;-83
2022/05/22 10:01:19;;;;;;;9.50;1.65;;;24.10;66.50;;;;;;4192596;28;20067;-84
2022/05/22 10:03:59;;;;;;;6.97;0.95;;;23.90;64.60;;;;;;4248775;27;20055;-84
2022/05/22 10:06:06;;;;;;;6.35;1.63;;;23.60;63.80;;;;;;4239297;27;20464;-84
2022/05/22 10:08:54;;;;;;;2.67;0.90;;;23.40;64.70;;;;;;4249450;27;20039;-83
2022/05/22 10:11:12;;;;;;;4.03;1.10;;;23.20;63.90;;;;;;4202358;27;20447;-83
2022/05/22 10:13:33;;;;;;;3.80;0.80;;;22.90;62.90;;;;;;4231141;28;20087;-83
2022/05/22 10:15:46;;;;;;;3.42;0.75;;;22.80;64.80;;;;;;4250691;27;20564;-83
2022/05/22 10:18:17;;;;;;;3.63;1.08;;;22.60;63.20;;;;;;4242824;28;20051;-83
2022/05/22 10:20:52;;;;;;;7.20;1.10;;;22.50;62.40;;;;;;4258189;27;20055;-83
2022/05/22 10:23:12;;;;;;;4.97;0.75;;;22.60;64.20;;;;;;4256827;27;20039;-83
2022/05/22 10:25:41;;;;;;;5.63;0.80;;;22.90;63.20;;;;;;4245502;28;20066;-83
2022/05/22 10:28:02;;;;;;;4.25;1.08;;;23.10;62.80;;;;;;4242579;28;20056;-84
2022/05/22 10:30:09;;;;;;;6.22;0.75;;;23.30;63.60;;;;;;4255165;27;20224;-83
2022/05/22 10:32:28;;;;;;;3.03;1.00;;;23.40;63.10;;;;;;4245647;28;20047;-82
2022/05/22 10:34:51;;;;;;;6.88;0.80;;;23.20;61.90;;;;;;4261457;27;20047;-83
2022/05/22 10:36:57;;;;;;;10.68;1.92;;;23.40;64.00;;;;;;4245079;28;20107;-83
2022/05/22 10:39:10;;;;;;;4.25;1.10;;;23.80;62.80;;;;;;4262260;27;20042;-82
2022/05/22 10:43:52;;;;;;;6.82;0.90;;;24.20;60.30;;;;;;4259426;27;20051;-85
2022/05/22 10:45:53;;;;;;;3.13;0.75;;;24.20;61.40;;;;;;4242982;28;20057;-85
2022/05/22 10:47:54;;;;;;;3.55;0.68;;;24.20;61.20;;;;;;4223295;28;20075;-85
2022/05/22 10:49:55;;;;;;;3.60;1.00;;;24.30;60.50;;;;;;4253720;27;20039;-83
2022/05/22 10:52:00;;;;;;;6.05;1.17;;;24.20;60.60;;;;;;4213481;28;20044;-82
2022/05/22 10:54:02;;;;;;;5.60;1.08;;;24.20;59.50;;;;;;4246508;28;20057;-83
2022/05/22 10:56:23;;;;;;;4.15;1.13;;;24.20;60.00;;;;;;4227405;28;20100;-83
2022/05/22 10:58:28;;;;;;;4.55;0.95;;;24.10;59.60;;;;;;4241419;28;20067;-83
2022/05/22 11:00:29;;;;;;;6.70;1.38;;;23.70;60.60;;;;;;4238913;28;20372;-83
2022/05/22 11:02:32;;;;;;;3.63;0.90;;;23.70;61.10;;;;;;4221042;28;20036;-82